sensor_id;sensor_type;location;lat;lon;timestamp;P1;durP1;ratioP1;P2;durP2;ratioP2
33162;SDS011;29282;45.656;11.302;2023-03-17T00:02:20;1.75;;;1.42;;
33162;SDS011;29282;45.656;11.302;2023-03-17T00:04:47;2.15;;;1.58;;
33162;SDS011;29282;45.656;11.302;2023-03-17T00:07:14;1.67;;;1.50;;
33162;SDS011;29282;45.656;11.302;2023-03-17T00:09:41;1.85;;;1.52;;
33162;SDS011;29282;45.656;11.302;2023-03-17T00:12:10;2.65;;;1.60;;
33162;SDS011;29282;45.656;11.302;2023-03-17T00:14:36;3.22;;;1.80;;
33162;SDS011;29282;45.656;11.302;2023-03-17T00:17:02;1.40;;;1.30;;
33162;SDS011;29282;45.656;11.302;2023-03-17T00:19:29;1.65;;;1.50;;
33162;SDS011;29282;45.656;11.302;2023-03-17T00:21:58;1.58;;;1.48;;
33162;SDS011;29282;45.656;11.302;2023-03-17T00:24:25;1.45;;;1.35;;
33162;SDS011;29282;45.656;11.302;2023-03-17T00:26:51;2.08;;;1.58;;
33162;SDS011;29282;45.656;11.302;2023-03-17T00:29:17;2.40;;;1.50;;
33162;SDS011;29282;45.656;11.302;2023-03-17T00:31:43;3.05;;;1.40;;
33162;SDS011;29282;45.656;11.302;2023-03-17T00:34:10;1.67;;;1.35;;
33162;SDS011;29282;45.656;11.302;2023-03-17T00:36:40;1.55;;;1.40;;
33162;SDS011;29282;45.656;11.302;2023-03-17T00:39:13;1.95;;;1.50;;
33162;SDS011;29282;45.656;11.302;2023-03-17T00:41:40;1.60;;;1.50;;
33162;SDS011;29282;45.656;11.302;2023-03-17T00:44:06;1.50;;;1.40;;
33162;SDS011;29282;45.656;11.302;2023-03-17T00:46:31;1.60;;;1.50;;
33162;SDS011;29282;45.656;11.302;2023-03-17T00:49:02;1.55;;;1.40;;
33162;SDS011;29282;45.656;11.302;2023-03-17T00:51:37;1.83;;;1.63;;
33162;SDS011;29282;45.656;11.302;2023-03-17T00:54:03;2.10;;;1.23;;
33162;SDS011;29282;45.656;11.302;2023-03-17T00:56:29;1.77;;;1.42;;
33162;SDS011;29282;45.656;11.302;2023-03-17T00:58:55;1.30;;;1.20;;
33162;SDS011;29282;45.656;11.302;2023-03-17T01:01:20;1.63;;;1.50;;
33162;SDS011;29282;45.656;11.302;2023-03-17T01:03:46;1.98;;;1.33;;
33162;SDS011;29282;45.656;11.302;2023-03-17T01:06:11;1.42;;;1.30;;
33162;SDS011;29282;45.656;11.302;2023-03-17T01:08:39;1.52;;;1.30;;
33162;SDS011;29282;45.656;11.302;2023-03-17T01:11:05;1.60;;;1.30;;
33162;SDS011;29282;45.656;11.302;2023-03-17T01:13:31;2.25;;;1.50;;
33162;SDS011;29282;45.656;11.302;2023-03-17T01:15:57;1.40;;;1.30;;
33162;SDS011;29282;45.656;11.302;2023-03-17T01:18:23;1.30;;;1.20;;
33162;SDS011;29282;45.656;11.302;2023-03-17T01:20:49;1.20;;;1.10;;
33162;SDS011;29282;45.656;11.302;2023-03-17T01:23:15;1.55;;;1.40;;
33162;SDS011;29282;45.656;11.302;2023-03-17T01:25:41;1.58;;;1.33;;
33162;SDS011;29282;45.656;11.302;2023-03-17T01:28:09;1.95;;;1.50;;
33162;SDS011;29282;45.656;11.302;2023-03-17T01:30:38;2.08;;;1.23;;
33162;SDS011;29282;45.656;11.302;2023-03-17T01:33:05;1.58;;;1.20;;
33162;SDS011;29282;45.656;11.302;2023-03-17T01:35:32;1.40;;;1.30;;
33162;SDS011;29282;45.656;11.302;2023-03-17T01:37:59;1.67;;;1.23;;
33162;SDS011;29282;45.656;11.302;2023-03-17T01:40:26;1.40;;;1.30;;
33162;SDS011;29282;45.656;11.302;2023-03-17T01:48:39;1.10;;;1.02;;
33162;SDS011;29282;45.656;11.302;2023-03-17T01:51:10;1.48;;;1.25;;
33162;SDS011;29282;45.656;11.302;2023-03-17T01:53:41;1.63;;;1.23;;
33162;SDS011;29282;45.656;11.302;2023-03-17T01:56:10;2.65;;;1.40;;
33162;SDS011;29282;45.656;11.302;2023-03-17T01:58:36;1.20;;;1.10;;
33162;SDS011;29282;45.656;11.302;2023-03-17T02:01:03;1.60;;;1.25;;
33162;SDS011;29282;45.656;11.302;2023-03-17T02:03:31;1.70;;;1.35;;
33162;SDS011;29282;45.656;11.302;2023-03-17T02:05:57;1.52;;;1.30;;
33162;SDS011;29282;45.656;11.302;2023-03-17T02:08:23;1.52;;;1.23;;
33162;SDS011;29282;45.656;11.302;2023-03-17T02:10:48;1.52;;;1.42;;
33162;SDS011;29282;45.656;11.302;2023-03-17T02:13:16;1.17;;;1.08;;
33162;SDS011;29282;45.656;11.302;2023-03-17T02:15:43;1.58;;;1.30;;
33162;SDS011;29282;45.656;11.302;2023-03-17T02:18:10;1.38;;;1.20;;
33162;SDS011;29282;45.656;11.302;2023-03-17T02:23:02;1.30;;;1.20;;
33162;SDS011;29282;45.656;11.302;2023-03-17T02:25:30;1.42;;;1.13;;
33162;SDS011;29282;45.656;11.302;2023-03-17T02:28:08;1.27;;;1.17;;
33162;SDS011;29282;45.656;11.302;2023-03-17T02:30:38;1.20;;;1.10;;
33162;SDS011;29282;45.656;11.302;2023-03-17T02:33:03;1.80;;;1.38;;
33162;SDS011;29282;45.656;11.302;2023-03-17T02:35:30;1.52;;;1.30;;
33162;SDS011;29282;45.656;11.302;2023-03-17T02:37:55;1.35;;;1.23;;
33162;SDS011;29282;45.656;11.302;2023-03-17T02:40:21;1.30;;;1.20;;
33162;SDS011;29282;45.656;11.302;2023-03-17T02:42:47;1.25;;;1.10;;
33162;SDS011;29282;45.656;11.302;2023-03-17T02:45:13;1.55;;;1.45;;
33162;SDS011;29282;45.656;11.302;2023-03-17T02:47:39;1.95;;;1.30;;
33162;SDS011;29282;45.656;11.302;2023-03-17T02:50:06;1.83;;;1.23;;
33162;SDS011;29282;45.656;11.302;2023-03-17T02:52:33;1.30;;;1.20;;
33162;SDS011;29282;45.656;11.302;2023-03-17T02:54:59;1.15;;;1.05;;
33162;SDS011;29282;45.656;11.302;2023-03-17T02:57:24;1.40;;;1.30;;
33162;SDS011;29282;45.656;11.302;2023-03-17T02:59:50;1.65;;;1.40;;
33162;SDS011;29282;45.656;11.302;2023-03-17T03:02:16;1.30;;;1.20;;
33162;SDS011;29282;45.656;11.302;2023-03-17T03:04:42;1.30;;;0.98;;
33162;SDS011;29282;45.656;11.302;2023-03-17T03:07:08;1.73;;;1.33;;
33162;SDS011;29282;45.656;11.302;2023-03-17T03:09:34;1.25;;;1.10;;
33162;SDS011;29282;45.656;11.302;2023-03-17T03:12:01;1.85;;;1.13;;
33162;SDS011;29282;45.656;11.302;2023-03-17T03:14:26;1.15;;;1.05;;
33162;SDS011;29282;45.656;11.302;2023-03-17T03:16:52;2.38;;;1.25;;
33162;SDS011;29282;45.656;11.302;2023-03-17T03:19:18;2.30;;;1.63;;
33162;SDS011;29282;45.656;11.302;2023-03-17T03:21:44;1.23;;;1.13;;
33162;SDS011;29282;45.656;11.302;2023-03-17T03:24:10;1.10;;;1.00;;
33162;SDS011;29282;45.656;11.302;2023-03-17T03:26:36;1.00;;;1.00;;
33162;SDS011;29282;45.656;11.302;2023-03-17T03:29:02;1.20;;;1.10;;
33162;SDS011;29282;45.656;11.302;2023-03-17T03:31:28;1.45;;;1.35;;
33162;SDS011;29282;45.656;11.302;2023-03-17T03:33:54;1.48;;;1.13;;
33162;SDS011;29282;45.656;11.302;2023-03-17T03:36:19;1.20;;;1.10;;
33162;SDS011;29282;45.656;11.302;2023-03-17T03:38:46;1.35;;;1.25;;
33162;SDS011;29282;45.656;11.302;2023-03-17T03:41:11;1.58;;;1.30;;
33162;SDS011;29282;45.656;11.302;2023-03-17T03:43:37;1.30;;;1.10;;
33162;SDS011;29282;45.656;11.302;2023-03-17T03:46:03;1.30;;;1.20;;
33162;SDS011;29282;45.656;11.302;2023-03-17T03:48:29;1.52;;;1.25;;
33162;SDS011;29282;45.656;11.302;2023-03-17T03:50:55;1.30;;;1.20;;
33162;SDS011;29282;45.656;11.302;2023-03-17T03:53:22;1.35;;;1.10;;
33162;SDS011;29282;45.656;11.302;2023-03-17T03:55:48;1.30;;;1.20;;
33162;SDS011;29282;45.656;11.302;2023-03-17T03:58:14;1.20;;;1.10;;
33162;SDS011;29282;45.656;11.302;2023-03-17T04:00:39;1.30;;;1.20;;
33162;SDS011;29282;45.656;11.302;2023-03-17T04:03:05;0.90;;;0.90;;
33162;SDS011;29282;45.656;11.302;2023-03-17T04:05:31;1.27;;;1.17;;
33162;SDS011;29282;45.656;11.302;2023-03-17T04:07:57;1.30;;;1.20;;
33162;SDS011;29282;45.656;11.302;2023-03-17T04:10:22;1.30;;;1.20;;
33162;SDS011;29282;45.656;11.302;2023-03-17T04:12:48;1.30;;;1.20;;
33162;SDS011;29282;45.656;11.302;2023-03-17T04:15:15;1.13;;;1.02;;
33162;SDS011;29282;45.656;11.302;2023-03-17T04:17:42;1.48;;;1.38;;
33162;SDS011;29282;45.656;11.302;2023-03-17T04:20:08;1.40;;;1.30;;
33162;SDS011;29282;45.656;11.302;2023-03-17T04:22:35;1.30;;;1.20;;
33162;SDS011;29282;45.656;11.302;2023-03-17T04:25:01;1.40;;;1.23;;
33162;SDS011;29282;45.656;11.302;2023-03-17T04:27:28;1.70;;;1.20;;
33162;SDS011;29282;45.656;11.302;2023-03-17T04:29:53;1.25;;;1.15;;
33162;SDS011;29282;45.656;11.302;2023-03-17T04:32:19;1.13;;;1.02;;
33162;SDS011;29282;45.656;11.302;2023-03-17T04:34:44;1.25;;;1.15;;
33162;SDS011;29282;45.656;11.302;2023-03-17T04:37:10;1.40;;;1.30;;
33162;SDS011;29282;45.656;11.302;2023-03-17T04:39:36;1.33;;;1.10;;
33162;SDS011;29282;45.656;11.302;2023-03-17T04:42:03;1.30;;;1.20;;
33162;SDS011;29282;45.656;11.302;2023-03-17T04:44:30;1.30;;;1.20;;
33162;SDS011;29282;45.656;11.302;2023-03-17T04:46:56;1.27;;;1.13;;
33162;SDS011;29282;45.656;11.302;2023-03-17T04:49:21;1.33;;;1.20;;
33162;SDS011;29282;45.656;11.302;2023-03-17T04:51:47;0.98;;;0.90;;
33162;SDS011;29282;45.656;11.302;2023-03-17T04:54:12;1.20;;;1.10;;
33162;SDS011;29282;45.656;11.302;2023-03-17T04:56:38;5.97;;;1.40;;
33162;SDS011;29282;45.656;11.302;2023-03-17T04:59:04;5.38;;;2.33;;
33162;SDS011;29282;45.656;11.302;2023-03-17T05:01:30;10.38;;;2.80;;
33162;SDS011;29282;45.656;11.302;2023-03-17T05:03:56;7.15;;;2.70;;
33162;SDS011;29282;45.656;11.302;2023-03-17T05:06:22;8.10;;;3.20;;
33162;SDS011;29282;45.656;11.302;2023-03-17T05:08:47;9.70;;;2.92;;
33162;SDS011;29282;45.656;11.302;2023-03-17T05:11:13;10.32;;;3.20;;
33162;SDS011;29282;45.656;11.302;2023-03-17T05:13:39;8.60;;;3.33;;
33162;SDS011;29282;45.656;11.302;2023-03-17T05:16:05;12.30;;;2.60;;
33162;SDS011;29282;45.656;11.302;2023-03-17T05:18:32;7.85;;;2.60;;
33162;SDS011;29282;45.656;11.302;2023-03-17T05:20:58;5.80;;;2.63;;
33162;SDS011;29282;45.656;11.302;2023-03-17T05:23:24;5.47;;;2.50;;
33162;SDS011;29282;45.656;11.302;2023-03-17T05:25:50;7.60;;;2.60;;
33162;SDS011;29282;45.656;11.302;2023-03-17T05:28:17;6.47;;;2.42;;
33162;SDS011;29282;45.656;11.302;2023-03-17T05:30:45;8.38;;;2.63;;
33162;SDS011;29282;45.656;11.302;2023-03-17T05:33:12;8.27;;;2.88;;
33162;SDS011;29282;45.656;11.302;2023-03-17T05:35:38;7.53;;;2.40;;
33162;SDS011;29282;45.656;11.302;2023-03-17T05:38:05;7.07;;;2.70;;
33162;SDS011;29282;45.656;11.302;2023-03-17T05:40:30;6.28;;;2.55;;
33162;SDS011;29282;45.656;11.302;2023-03-17T05:42:56;7.20;;;2.83;;
33162;SDS011;29282;45.656;11.302;2023-03-17T05:45:22;7.68;;;2.75;;
33162;SDS011;29282;45.656;11.302;2023-03-17T05:47:47;6.75;;;2.83;;
33162;SDS011;29282;45.656;11.302;2023-03-17T05:50:13;5.28;;;2.70;;
33162;SDS011;29282;45.656;11.302;2023-03-17T05:52:38;9.98;;;2.53;;
33162;SDS011;29282;45.656;11.302;2023-03-17T05:55:04;7.75;;;2.50;;
33162;SDS011;29282;45.656;11.302;2023-03-17T05:57:32;6.40;;;2.78;;
33162;SDS011;29282;45.656;11.302;2023-03-17T05:59:57;6.03;;;2.53;;
33162;SDS011;29282;45.656;11.302;2023-03-17T06:02:23;7.47;;;2.80;;
33162;SDS011;29282;45.656;11.302;2023-03-17T06:04:49;4.07;;;2.22;;
33162;SDS011;29282;45.656;11.302;2023-03-17T06:07:15;5.90;;;2.28;;
33162;SDS011;29282;45.656;11.302;2023-03-17T06:09:41;3.17;;;2.30;;
33162;SDS011;29282;45.656;11.302;2023-03-17T06:12:07;7.60;;;2.60;;
33162;SDS011;29282;45.656;11.302;2023-03-17T06:14:34;5.85;;;2.67;;
33162;SDS011;29282;45.656;11.302;2023-03-17T06:17:00;5.55;;;2.70;;
33162;SDS011;29282;45.656;11.302;2023-03-17T06:19:26;6.55;;;2.97;;
33162;SDS011;29282;45.656;11.302;2023-03-17T06:21:52;5.05;;;2.50;;
33162;SDS011;29282;45.656;11.302;2023-03-17T06:24:18;7.63;;;2.63;;
33162;SDS011;29282;45.656;11.302;2023-03-17T06:26:43;6.35;;;2.47;;
33162;SDS011;29282;45.656;11.302;2023-03-17T06:29:09;5.38;;;2.47;;
33162;SDS011;29282;45.656;11.302;2023-03-17T06:31:35;3.85;;;2.30;;
33162;SDS011;29282;45.656;11.302;2023-03-17T06:34:01;5.45;;;2.53;;
33162;SDS011;29282;45.656;11.302;2023-03-17T06:36:27;3.55;;;2.28;;
33162;SDS011;29282;45.656;11.302;2023-03-17T06:38:53;4.63;;;2.20;;
33162;SDS011;29282;45.656;11.302;2023-03-17T06:41:19;2.92;;;2.20;;
33162;SDS011;29282;45.656;11.302;2023-03-17T06:43:45;4.30;;;2.42;;
33162;SDS011;29282;45.656;11.302;2023-03-17T06:46:11;7.30;;;3.47;;
33162;SDS011;29282;45.656;11.302;2023-03-17T06:48:37;12.10;;;6.95;;
33162;SDS011;29282;45.656;11.302;2023-03-17T06:51:02;14.32;;;7.93;;
33162;SDS011;29282;45.656;11.302;2023-03-17T06:53:28;18.38;;;10.13;;
33162;SDS011;29282;45.656;11.302;2023-03-17T06:55:54;15.65;;;10.00;;
33162;SDS011;29282;45.656;11.302;2023-03-17T06:58:20;16.20;;;10.43;;
33162;SDS011;29282;45.656;11.302;2023-03-17T07:00:45;15.82;;;10.30;;
33162;SDS011;29282;45.656;11.302;2023-03-17T07:03:14;14.73;;;9.35;;
33162;SDS011;29282;45.656;11.302;2023-03-17T07:05:41;16.67;;;9.55;;
33162;SDS011;29282;45.656;11.302;2023-03-17T07:08:07;16.60;;;9.40;;
33162;SDS011;29282;45.656;11.302;2023-03-17T07:10:33;21.27;;;9.48;;
33162;SDS011;29282;45.656;11.302;2023-03-17T07:12:59;12.23;;;8.68;;
33162;SDS011;29282;45.656;11.302;2023-03-17T07:15:26;15.27;;;8.23;;
33162;SDS011;29282;45.656;11.302;2023-03-17T07:17:52;13.80;;;7.68;;
33162;SDS011;29282;45.656;11.302;2023-03-17T07:20:18;14.98;;;7.25;;
33162;SDS011;29282;45.656;11.302;2023-03-17T07:22:45;12.27;;;7.40;;
33162;SDS011;29282;45.656;11.302;2023-03-17T07:25:10;15.57;;;7.13;;
33162;SDS011;29282;45.656;11.302;2023-03-17T07:27:37;12.88;;;6.90;;
33162;SDS011;29282;45.656;11.302;2023-03-17T07:30:03;12.50;;;7.07;;
33162;SDS011;29282;45.656;11.302;2023-03-17T07:32:29;10.60;;;7.18;;
33162;SDS011;29282;45.656;11.302;2023-03-17T07:34:56;10.48;;;6.65;;
33162;SDS011;29282;45.656;11.302;2023-03-17T07:37:22;12.75;;;6.57;;
33162;SDS011;29282;45.656;11.302;2023-03-17T07:39:48;10.48;;;6.75;;
33162;SDS011;29282;45.656;11.302;2023-03-17T07:42:15;13.70;;;6.47;;
33162;SDS011;29282;45.656;11.302;2023-03-17T07:44:41;14.30;;;7.80;;
33162;SDS011;29282;45.656;11.302;2023-03-17T07:47:07;12.15;;;6.32;;
33162;SDS011;29282;45.656;11.302;2023-03-17T07:49:34;9.50;;;5.40;;
33162;SDS011;29282;45.656;11.302;2023-03-17T07:52:00;11.35;;;6.25;;
33162;SDS011;29282;45.656;11.302;2023-03-17T07:54:26;11.38;;;6.03;;
33162;SDS011;29282;45.656;11.302;2023-03-17T07:56:53;9.15;;;5.72;;
33162;SDS011;29282;45.656;11.302;2023-03-17T07:59:18;12.90;;;5.95;;
33162;SDS011;29282;45.656;11.302;2023-03-17T08:01:45;10.68;;;6.53;;
33162;SDS011;29282;45.656;11.302;2023-03-17T08:04:10;11.15;;;5.63;;
33162;SDS011;29282;45.656;11.302;2023-03-17T08:06:40;9.50;;;5.80;;
33162;SDS011;29282;45.656;11.302;2023-03-17T08:09:09;10.05;;;5.45;;
33162;SDS011;29282;45.656;11.302;2023-03-17T08:11:35;12.20;;;5.47;;
33162;SDS011;29282;45.656;11.302;2023-03-17T08:14:02;9.38;;;5.15;;
33162;SDS011;29282;45.656;11.302;2023-03-17T08:16:28;10.52;;;5.45;;
33162;SDS011;29282;45.656;11.302;2023-03-17T08:18:54;8.95;;;4.78;;
33162;SDS011;29282;45.656;11.302;2023-03-17T08:21:22;6.90;;;4.63;;
33162;SDS011;29282;45.656;11.302;2023-03-17T08:23:49;11.32;;;5.28;;
33162;SDS011;29282;45.656;11.302;2023-03-17T08:26:15;9.30;;;4.53;;
33162;SDS011;29282;45.656;11.302;2023-03-17T08:28:40;9.65;;;4.80;;
33162;SDS011;29282;45.656;11.302;2023-03-17T08:31:10;6.57;;;4.32;;
33162;SDS011;29282;45.656;11.302;2023-03-17T08:33:41;7.10;;;4.95;;
33162;SDS011;29282;45.656;11.302;2023-03-17T08:36:09;8.10;;;4.57;;
33162;SDS011;29282;45.656;11.302;2023-03-17T08:38:39;6.88;;;4.82;;
33162;SDS011;29282;45.656;11.302;2023-03-17T08:41:07;10.00;;;4.55;;
33162;SDS011;29282;45.656;11.302;2023-03-17T08:43:35;6.18;;;4.38;;
33162;SDS011;29282;45.656;11.302;2023-03-17T08:46:05;14.23;;;4.82;;
33162;SDS011;29282;45.656;11.302;2023-03-17T08:48:34;9.80;;;4.88;;
33162;SDS011;29282;45.656;11.302;2023-03-17T08:51:01;8.18;;;4.20;;
33162;SDS011;29282;45.656;11.302;2023-03-17T08:53:27;9.85;;;4.28;;
33162;SDS011;29282;45.656;11.302;2023-03-17T08:55:54;9.10;;;4.70;;
33162;SDS011;29282;45.656;11.302;2023-03-17T08:58:21;7.60;;;4.57;;
33162;SDS011;29282;45.656;11.302;2023-03-17T09:00:47;7.80;;;3.92;;
33162;SDS011;29282;45.656;11.302;2023-03-17T09:03:14;6.55;;;3.47;;
33162;SDS011;29282;45.656;11.302;2023-03-17T09:05:40;6.05;;;3.97;;
33162;SDS011;29282;45.656;11.302;2023-03-17T09:08:07;6.15;;;3.78;;
33162;SDS011;29282;45.656;11.302;2023-03-17T09:10:33;9.63;;;3.47;;
33162;SDS011;29282;45.656;11.302;2023-03-17T09:12:59;8.70;;;3.55;;
33162;SDS011;29282;45.656;11.302;2023-03-17T09:15:28;4.55;;;3.30;;
33162;SDS011;29282;45.656;11.302;2023-03-17T09:18:02;7.23;;;3.47;;
33162;SDS011;29282;45.656;11.302;2023-03-17T09:20:28;5.10;;;3.30;;
33162;SDS011;29282;45.656;11.302;2023-03-17T09:22:53;7.28;;;3.33;;
33162;SDS011;29282;45.656;11.302;2023-03-17T09:25:20;5.53;;;3.00;;
33162;SDS011;29282;45.656;11.302;2023-03-17T09:27:46;8.55;;;3.35;;
33162;SDS011;29282;45.656;11.302;2023-03-17T09:30:11;7.63;;;3.45;;
33162;SDS011;29282;45.656;11.302;2023-03-17T09:32:37;6.28;;;3.33;;
33162;SDS011;29282;45.656;11.302;2023-03-17T09:35:04;7.00;;;3.38;;
33162;SDS011;29282;45.656;11.302;2023-03-17T09:37:30;6.57;;;3.22;;
33162;SDS011;29282;45.656;11.302;2023-03-17T09:39:56;5.60;;;2.92;;
33162;SDS011;29282;45.656;11.302;2023-03-17T09:53:19;3.08;;;2.45;;
33162;SDS011;29282;45.656;11.302;2023-03-17T09:55:49;7.60;;;2.85;;
33162;SDS011;29282;45.656;11.302;2023-03-17T09:58:19;4.00;;;2.70;;
33162;SDS011;29282;45.656;11.302;2023-03-17T10:00:48;3.78;;;2.90;;
33162;SDS011;29282;45.656;11.302;2023-03-17T10:03:15;5.70;;;2.80;;
33162;SDS011;29282;45.656;11.302;2023-03-17T10:05:41;5.45;;;2.60;;
33162;SDS011;29282;45.656;11.302;2023-03-17T10:10:44;4.32;;;2.80;;
33162;SDS011;29282;45.656;11.302;2023-03-17T10:13:21;3.70;;;2.30;;
33162;SDS011;29282;45.656;11.302;2023-03-17T10:16:05;5.05;;;2.70;;
33162;SDS011;29282;45.656;11.302;2023-03-17T10:21:43;3.95;;;2.60;;
33162;SDS011;29282;45.656;11.302;2023-03-17T10:24:14;4.32;;;2.60;;
33162;SDS011;29282;45.656;11.302;2023-03-17T10:26:45;7.38;;;2.90;;
33162;SDS011;29282;45.656;11.302;2023-03-17T10:29:17;5.50;;;2.60;;
33162;SDS011;29282;45.656;11.302;2023-03-17T10:31:46;6.72;;;2.50;;
33162;SDS011;29282;45.656;11.302;2023-03-17T10:34:18;4.38;;;2.55;;
33162;SDS011;29282;45.656;11.302;2023-03-17T10:39:47;4.07;;;2.40;;
33162;SDS011;29282;45.656;11.302;2023-03-17T10:42:25;4.28;;;2.25;;
33162;SDS011;29282;45.656;11.302;2023-03-17T10:45:00;4.22;;;2.83;;
33162;SDS011;29282;45.656;11.302;2023-03-17T10:47:39;4.53;;;2.15;;
33162;SDS011;29282;45.656;11.302;2023-03-17T10:50:28;5.22;;;2.97;;
33162;SDS011;29282;45.656;11.302;2023-03-17T10:53:08;5.50;;;2.63;;
33162;SDS011;29282;45.656;11.302;2023-03-17T10:55:51;5.47;;;3.13;;
33162;SDS011;29282;45.656;11.302;2023-03-17T10:58:22;4.78;;;3.00;;
33162;SDS011;29282;45.656;11.302;2023-03-17T11:01:15;4.00;;;2.47;;
33162;SDS011;29282;45.656;11.302;2023-03-17T11:03:53;3.63;;;2.30;;
33162;SDS011;29282;45.656;11.302;2023-03-17T11:06:25;2.58;;;2.20;;
33162;SDS011;29282;45.656;11.302;2023-03-17T11:09:07;4.18;;;2.10;;
33162;SDS011;29282;45.656;11.302;2023-03-17T11:11:41;5.50;;;2.35;;
33162;SDS011;29282;45.656;11.302;2023-03-17T11:16:39;4.03;;;2.28;;
33162;SDS011;29282;45.656;11.302;2023-03-17T11:19:18;3.88;;;2.33;;
33162;SDS011;29282;45.656;11.302;2023-03-17T11:21:59;4.22;;;2.30;;
33162;SDS011;29282;45.656;11.302;2023-03-17T11:35:23;4.10;;;2.28;;
33162;SDS011;29282;45.656;11.302;2023-03-17T11:46:31;3.38;;;2.10;;
33162;SDS011;29282;45.656;11.302;2023-03-17T11:49:12;3.70;;;2.08;;
33162;SDS011;29282;45.656;11.302;2023-03-17T11:57:40;2.42;;;1.98;;
33162;SDS011;29282;45.656;11.302;2023-03-17T12:00:26;5.97;;;2.25;;
33162;SDS011;29282;45.656;11.302;2023-03-17T12:05:28;3.72;;;3.15;;
33162;SDS011;29282;45.656;11.302;2023-03-17T12:07:56;3.28;;;2.17;;
33162;SDS011;29282;45.656;11.302;2023-03-17T12:10:45;7.18;;;2.22;;
33162;SDS011;29282;45.656;11.302;2023-03-17T12:13:17;5.20;;;2.30;;
33162;SDS011;29282;45.656;11.302;2023-03-17T12:18:52;6.80;;;2.40;;
33162;SDS011;29282;45.656;11.302;2023-03-17T12:27:15;5.25;;;2.15;;
33162;SDS011;29282;45.656;11.302;2023-03-17T12:30:32;4.25;;;2.13;;
33162;SDS011;29282;45.656;11.302;2023-03-17T12:35:42;4.72;;;2.35;;
33162;SDS011;29282;45.656;11.302;2023-03-17T12:53:02;5.18;;;2.58;;
33162;SDS011;29282;45.656;11.302;2023-03-17T12:55:37;4.18;;;2.55;;
33162;SDS011;29282;45.656;11.302;2023-03-17T12:58:03;10.15;;;2.55;;
33162;SDS011;29282;45.656;11.302;2023-03-17T13:01:22;3.65;;;1.98;;
33162;SDS011;29282;45.656;11.302;2023-03-17T13:03:29;9.57;;;3.25;;
33162;SDS011;29282;45.656;11.302;2023-03-17T13:05:58;6.43;;;2.47;;
33162;SDS011;29282;45.656;11.302;2023-03-17T13:14:38;6.03;;;2.22;;
33162;SDS011;29282;45.656;11.302;2023-03-17T13:22:32;5.80;;;2.95;;
33162;SDS011;29282;45.656;11.302;2023-03-17T13:49:12;9.82;;;3.00;;
33162;SDS011;29282;45.656;11.302;2023-03-17T13:51:52;17.05;;;3.78;;
33162;SDS011;29282;45.656;11.302;2023-03-17T13:56:58;13.68;;;3.53;;
33162;SDS011;29282;45.656;11.302;2023-03-17T14:02:50;15.00;;;3.35;;
33162;SDS011;29282;45.656;11.302;2023-03-17T14:05:27;6.97;;;2.90;;
33162;SDS011;29282;45.656;11.302;2023-03-17T14:07:57;13.48;;;3.47;;
33162;SDS011;29282;45.656;11.302;2023-03-17T14:10:27;13.88;;;3.15;;
33162;SDS011;29282;45.656;11.302;2023-03-17T14:18:40;5.65;;;2.85;;
33162;SDS011;29282;45.656;11.302;2023-03-17T14:23:58;8.35;;;3.15;;
33162;SDS011;29282;45.656;11.302;2023-03-17T14:26:29;8.20;;;3.08;;
33162;SDS011;29282;45.656;11.302;2023-03-17T14:29:02;10.63;;;2.67;;
33162;SDS011;29282;45.656;11.302;2023-03-17T14:31:29;7.13;;;3.05;;
33162;SDS011;29282;45.656;11.302;2023-03-17T14:33:59;9.40;;;2.80;;
33162;SDS011;29282;45.656;11.302;2023-03-17T14:36:26;5.25;;;2.70;;
33162;SDS011;29282;45.656;11.302;2023-03-17T14:38:53;5.15;;;2.60;;
33162;SDS011;29282;45.656;11.302;2023-03-17T14:41:21;6.78;;;2.83;;
33162;SDS011;29282;45.656;11.302;2023-03-17T14:43:49;13.02;;;3.10;;
33162;SDS011;29282;45.656;11.302;2023-03-17T14:46:19;5.90;;;2.70;;
33162;SDS011;29282;45.656;11.302;2023-03-17T14:48:47;7.80;;;2.85;;
33162;SDS011;29282;45.656;11.302;2023-03-17T14:53:47;8.43;;;3.30;;
33162;SDS011;29282;45.656;11.302;2023-03-17T14:56:13;6.30;;;2.70;;
33162;SDS011;29282;45.656;11.302;2023-03-17T14:58:40;4.30;;;2.30;;
33162;SDS011;29282;45.656;11.302;2023-03-17T15:03:50;6.20;;;2.55;;
33162;SDS011;29282;45.656;11.302;2023-03-17T15:08:50;6.50;;;2.70;;
33162;SDS011;29282;45.656;11.302;2023-03-17T15:11:24;4.80;;;2.30;;
33162;SDS011;29282;45.656;11.302;2023-03-17T15:13:55;11.93;;;3.05;;
33162;SDS011;29282;45.656;11.302;2023-03-17T15:16:32;9.15;;;2.95;;
33162;SDS011;29282;45.656;11.302;2023-03-17T15:21:40;5.43;;;2.20;;
33162;SDS011;29282;45.656;11.302;2023-03-17T15:24:24;5.35;;;2.63;;
33162;SDS011;29282;45.656;11.302;2023-03-17T15:26:57;9.40;;;2.88;;
33162;SDS011;29282;45.656;11.302;2023-03-17T15:29:24;7.18;;;2.05;;
33162;SDS011;29282;45.656;11.302;2023-03-17T15:31:50;3.45;;;2.05;;
33162;SDS011;29282;45.656;11.302;2023-03-17T15:34:15;4.32;;;2.20;;
33162;SDS011;29282;45.656;11.302;2023-03-17T15:36:41;3.88;;;1.98;;
33162;SDS011;29282;45.656;11.302;2023-03-17T15:39:11;4.30;;;2.22;;
33162;SDS011;29282;45.656;11.302;2023-03-17T15:41:36;5.00;;;2.30;;
33162;SDS011;29282;45.656;11.302;2023-03-17T15:44:02;4.88;;;2.47;;
33162;SDS011;29282;45.656;11.302;2023-03-17T15:46:29;7.70;;;2.20;;
33162;SDS011;29282;45.656;11.302;2023-03-17T15:48:56;2.53;;;1.80;;
33162;SDS011;29282;45.656;11.302;2023-03-17T15:51:21;5.80;;;2.58;;
33162;SDS011;29282;45.656;11.302;2023-03-17T15:53:47;3.97;;;2.00;;
33162;SDS011;29282;45.656;11.302;2023-03-17T15:56:17;4.25;;;2.00;;
33162;SDS011;29282;45.656;11.302;2023-03-17T15:58:47;3.65;;;2.25;;
33162;SDS011;29282;45.656;11.302;2023-03-17T16:01:15;4.55;;;2.30;;
33162;SDS011;29282;45.656;11.302;2023-03-17T16:03:42;5.43;;;2.20;;
33162;SDS011;29282;45.656;11.302;2023-03-17T16:06:19;5.70;;;2.08;;
33162;SDS011;29282;45.656;11.302;2023-03-17T16:08:46;5.28;;;2.08;;
33162;SDS011;29282;45.656;11.302;2023-03-17T16:11:13;7.70;;;2.00;;
33162;SDS011;29282;45.656;11.302;2023-03-17T16:13:43;6.10;;;2.28;;
33162;SDS011;29282;45.656;11.302;2023-03-17T16:16:14;4.10;;;1.98;;
33162;SDS011;29282;45.656;11.302;2023-03-17T16:18:45;3.85;;;2.05;;
33162;SDS011;29282;45.656;11.302;2023-03-17T16:21:12;3.97;;;2.10;;
33162;SDS011;29282;45.656;11.302;2023-03-17T16:23:37;2.65;;;1.90;;
33162;SDS011;29282;45.656;11.302;2023-03-17T16:26:03;3.92;;;1.92;;
33162;SDS011;29282;45.656;11.302;2023-03-17T16:28:29;6.82;;;2.13;;
33162;SDS011;29282;45.656;11.302;2023-03-17T16:30:57;5.57;;;1.90;;
33162;SDS011;29282;45.656;11.302;2023-03-17T16:33:28;4.88;;;1.85;;
33162;SDS011;29282;45.656;11.302;2023-03-17T16:35:58;3.72;;;1.77;;
33162;SDS011;29282;45.656;11.302;2023-03-17T16:38:26;6.78;;;2.22;;
33162;SDS011;29282;45.656;11.302;2023-03-17T16:40:54;4.10;;;2.13;;
33162;SDS011;29282;45.656;11.302;2023-03-17T16:43:29;3.83;;;1.90;;
33162;SDS011;29282;45.656;11.302;2023-03-17T16:45:58;10.07;;;2.13;;
33162;SDS011;29282;45.656;11.302;2023-03-17T16:48:26;3.28;;;1.73;;
33162;SDS011;29282;45.656;11.302;2023-03-17T16:50:53;3.85;;;1.90;;
33162;SDS011;29282;45.656;11.302;2023-03-17T16:53:19;2.92;;;1.75;;
33162;SDS011;29282;45.656;11.302;2023-03-17T16:55:45;5.85;;;1.67;;
33162;SDS011;29282;45.656;11.302;2023-03-17T16:58:16;2.45;;;1.73;;
33162;SDS011;29282;45.656;11.302;2023-03-17T17:00:45;3.28;;;1.80;;
33162;SDS011;29282;45.656;11.302;2023-03-17T17:03:13;5.10;;;1.70;;
33162;SDS011;29282;45.656;11.302;2023-03-17T17:05:39;3.30;;;1.50;;